Time;durP1;ratioP1;P1;durP2;ratioP2;P2;SDS_P1;SDS_P2;PMS_P1;PMS_P2;Temp;Humidity;BMP_temperature;BMP_pressure;BME280_temperature;BME280_humidity;BME280_pressure;Samples;Min_cycle;Max_cycle;Signal;HPM_P1;HPM_P2
2020/12/26 00:01:56;;;;;;;25.27;8.58;;;;;;;0.15;84.76;98952.67;2121204;83;21304;-64
2020/12/26 00:04:57;;;;;;;28.12;10.35;;;;;;;0.14;84.19;98959.56;2120644;84;21296;-69
2020/12/26 00:07:58;;;;;;;29.50;10.32;;;;;;;0.13;84.06;98958.27;2157609;82;21292;-70
2020/12/26 00:10:59;;;;;;;25.48;9.13;;;;;;;0.12;83.92;98952.72;2156786;83;21325;-68
2020/12/26 00:14:00;;;;;;;27.60;9.65;;;;;;;0.11;84.16;98960.88;2156857;83;21303;-73
2020/12/26 00:17:03;;;;;;;25.43;8.95;;;;;;;0.10;83.75;98957.91;2120925;83;21744;-73
2020/12/26 00:20:04;;;;;;;25.02;8.40;;;;;;;0.10;83.64;98960.91;2157385;83;21198;-72
2020/12/26 00:23:05;;;;;;;26.05;9.30;;;;;;;0.09;82.62;98966.97;2157177;83;21328;-65
2020/12/26 00:26:06;;;;;;;22.25;6.53;;;;;;;0.07;82.51;98976.02;2121131;84;21284;-68
2020/12/26 00:29:07;;;;;;;22.85;7.00;;;;;;;0.06;81.04;98992.36;2157266;83;21146;-75
2020/12/26 00:32:08;;;;;;;24.12;7.78;;;;;;;0.06;81.00;98979.88;2156931;83;21304;-66
2020/12/26 00:35:10;;;;;;;22.62;7.40;;;;;;;0.06;80.53;98977.30;2156843;83;21713;-68
2020/12/26 00:38:11;;;;;;;23.90;7.60;;;;;;;0.05;80.22;98978.20;2157186;83;21114;-68
2020/12/26 00:41:12;;;;;;;19.62;5.70;;;;;;;0.05;81.01;98983.36;2120887;84;21724;-69
2020/12/26 00:44:14;;;;;;;22.32;7.22;;;;;;;0.03;80.33;98979.52;2155812;83;21665;-74
2020/12/26 00:47:15;;;;;;;23.67;6.62;;;;;;;0.03;80.22;98983.80;2155146;83;21340;-75
2020/12/26 00:50:16;;;;;;;21.35;6.75;;;;;;;0.02;80.11;98981.67;2155246;83;21308;-68
2020/12/26 00:53:17;;;;;;;21.52;6.00;;;;;;;0.02;80.36;98978.26;2154817;83;21292;-73
2020/12/26 00:56:18;;;;;;;20.12;5.30;;;;;;;-0.01;78.55;98977.86;2154862;83;21732;-74
2020/12/26 00:59:19;;;;;;;18.32;4.58;;;;;;;-0.01;78.85;98971.41;2155024;83;21304;-70
2020/12/26 01:02:21;;;;;;;17.37;4.30;;;;;;;-0.03;77.33;98972.73;2155049;83;21304;-70
2020/12/26 01:05:22;;;;;;;14.20;3.90;;;;;;;-0.03;77.10;98979.17;2154992;83;21273;-65
2020/12/26 01:08:23;;;;;;;14.78;3.80;;;;;;;-0.04;75.84;98974.05;2155228;83;21316;-67
2020/12/26 01:11:24;;;;;;;11.35;3.15;;;;;;;-0.04;76.90;98982.63;2155045;83;21280;-66
2020/12/26 01:14:26;;;;;;;11.80;3.35;;;;;;;-0.05;75.98;98987.36;2155013;83;21146;-70
2020/12/26 01:17:27;;;;;;;12.70;3.70;;;;;;;-0.06;75.95;98983.52;2154905;83;21277;-64
2020/12/26 01:20:28;;;;;;;9.68;3.02;;;;;;;-0.07;75.13;98987.83;2154889;83;21751;-64
2020/12/26 01:23:29;;;;;;;13.85;3.58;;;;;;;-0.09;75.55;98984.41;2155022;83;21300;-71
2020/12/26 01:26:30;;;;;;;10.75;2.75;;;;;;;-0.09;76.25;98985.70;2154850;83;21339;-68
2020/12/26 01:29:31;;;;;;;11.50;2.92;;;;;;;-0.10;75.25;98983.14;2155013;83;21891;-72
2020/12/26 01:32:32;;;;;;;10.48;2.80;;;;;;;-0.12;76.20;98983.17;2155249;83;21303;-70
2020/12/26 01:35:34;;;;;;;12.37;3.08;;;;;;;-0.12;75.49;98985.75;2155136;83;21288;-65
2020/12/26 01:38:35;;;;;;;16.00;3.27;;;;;;;-0.10;75.72;98976.28;2155219;83;21328;-76
2020/12/26 01:41:36;;;;;;;16.85;3.50;;;;;;;-0.10;75.82;98977.98;2155225;83;21146;-78
2020/12/26 01:44:37;;;;;;;14.90;3.70;;;;;;;-0.10;75.37;98985.72;2154655;83;21295;-73
2020/12/26 01:47:38;;;;;;;15.85;3.67;;;;;;;-0.13;75.16;98981.91;2155032;83;21158;-70
2020/12/26 01:50:39;;;;;;;13.38;3.45;;;;;;;-0.13;75.31;98986.64;2155002;83;21157;-67
2020/12/26 01:53:41;;;;;;;12.45;3.00;;;;;;;-0.13;76.27;98989.64;2154878;83;21323;-64
2020/12/26 01:56:42;;;;;;;12.65;3.80;;;;;;;-0.14;76.28;98984.93;2154981;83;21597;-65
2020/12/26 01:59:43;;;;;;;14.25;3.80;;;;;;;-0.14;75.49;98982.36;2154744;83;21181;-64
2020/12/26 02:02:44;;;;;;;16.30;3.90;;;;;;;-0.14;76.28;98972.45;2154988;83;21305;-64
2020/12/26 02:05:45;;;;;;;16.42;3.92;;;;;;;-0.15;75.45;98979.35;2154844;83;21310;-65
2020/12/26 02:08:46;;;;;;;13.58;3.30;;;;;;;-0.15;76.14;98983.22;2155001;83;21170;-67
2020/12/26 02:11:47;;;;;;;18.15;4.05;;;;;;;-0.15;75.91;98974.64;2154940;83;21724;-65
2020/12/26 02:14:48;;;;;;;15.63;3.85;;;;;;;-0.16;76.15;98983.25;2155159;83;21296;-64
2020/12/26 02:17:50;;;;;;;16.07;4.20;;;;;;;-0.18;77.02;98985.84;2154862;83;21141;-66
2020/12/26 02:20:51;;;;;;;15.85;4.08;;;;;;;-0.19;76.29;98981.55;2154703;83;21142;-66
2020/12/26 02:23:52;;;;;;;11.85;3.35;;;;;;;-0.19;76.72;98985.42;2154845;83;21755;-73
2020/12/26 02:26:53;;;;;;;16.77;3.90;;;;;;;-0.21;75.69;98989.77;2125701;83;21704;-65
2020/12/26 02:29:54;;;;;;;15.63;3.80;;;;;;;-0.20;75.63;98983.30;2154974;83;21605;-64
2020/12/26 02:32:55;;;;;;;14.05;3.40;;;;;;;-0.21;75.82;98986.73;2155227;83;21296;-64
2020/12/26 02:35:56;;;;;;;15.55;3.40;;;;;;;-0.21;75.74;98985.90;2154713;83;21158;-63
2020/12/26 02:38:57;;;;;;;14.70;3.62;;;;;;;-0.22;75.77;98980.32;2154703;83;21174;-65
2020/12/26 02:41:58;;;;;;;14.78;3.30;;;;;;;-0.23;76.51;98978.61;2155216;83;21296;-68
2020/12/26 02:45:00;;;;;;;11.43;3.20;;;;;;;-0.25;76.18;98976.05;2150603;83;21139;-69
2020/12/26 02:48:01;;;;;;;12.20;3.35;;;;;;;-0.25;76.16;98982.50;2111626;84;21633;-70
2020/12/26 02:51:02;;;;;;;12.35;3.20;;;;;;;-0.26;76.85;98978.66;2206329;80;21269;-71
2020/12/26 02:54:04;;;;;;;12.23;3.33;;;;;;;-0.26;76.63;98987.67;2111538;84;21142;-76
2020/12/26 02:57:05;;;;;;;12.35;3.15;;;;;;;-0.27;76.30;98979.10;2206113;80;21326;-72
2020/12/26 03:00:06;;;;;;;13.05;3.67;;;;;;;-0.27;75.79;98984.26;2091402;84;21289;-67
2020/12/26 03:03:07;;;;;;;13.50;3.60;;;;;;;-0.26;76.18;98986.39;2205816;80;21116;-74
2020/12/26 03:06:08;;;;;;;16.62;3.90;;;;;;;-0.26;76.88;98994.13;2111711;84;21157;-75
2020/12/26 03:09:10;;;;;;;13.58;3.22;;;;;;;-0.26;76.88;98990.26;2206044;80;21143;-66
2020/12/26 03:12:11;;;;;;;14.55;3.25;;;;;;;-0.27;76.85;98991.16;2111571;84;21111;-66
2020/12/26 03:15:12;;;;;;;15.15;3.50;;;;;;;-0.27;76.38;98993.73;2206130;80;21736;-65
2020/12/26 03:18:14;;;;;;;13.17;3.60;;;;;;;-0.28;76.55;98995.44;2111963;84;21166;-67
2020/12/26 03:21:15;;;;;;;12.15;3.47;;;;;;;-0.27;76.88;98988.13;2206029;80;21313;-72
2020/12/26 03:24:16;;;;;;;13.98;3.33;;;;;;;-0.27;76.93;98998.44;2111902;84;21720;-72
2020/12/26 03:27:17;;;;;;;12.85;3.30;;;;;;;-0.27;76.46;98995.02;2206131;80;21281;-72
2020/12/26 03:30:18;;;;;;;14.50;3.60;;;;;;;-0.26;77.09;98991.55;2111672;84;21146;-68
2020/12/26 03:33:19;;;;;;;12.95;3.30;;;;;;;-0.29;76.61;99000.16;2206233;80;21288;-66
2020/12/26 03:36:20;;;;;;;16.70;4.05;;;;;;;-0.28;77.10;98999.75;2111668;84;21755;-71
2020/12/26 03:39:21;;;;;;;13.50;3.47;;;;;;;-0.27;77.66;98996.31;2206459;80;21305;-73
2020/12/26 03:42:22;;;;;;;15.03;4.00;;;;;;;-0.27;77.86;99004.04;2111826;84;21300;-73
2020/12/26 03:45:23;;;;;;;17.25;3.77;;;;;;;-0.28;78.13;99003.17;2206022;80;21725;-75
2020/12/26 03:48:24;;;;;;;16.90;4.60;;;;;;;-0.28;77.63;99010.06;2112137;84;21332;-65
2020/12/26 03:51:25;;;;;;;16.57;4.03;;;;;;;-0.28;78.30;99004.46;2206464;80;21310;-65
2020/12/26 03:54:26;;;;;;;15.43;4.22;;;;;;;-0.28;78.31;99008.77;2111666;84;21158;-72
2020/12/26 03:57:28;;;;;;;15.40;3.92;;;;;;;-0.27;78.65;99007.91;2206102;80;21595;-77
2020/12/26 04:00:29;;;;;;;11.45;3.55;;;;;;;-0.28;78.71;99012.19;2206406;81;21309;-69
2020/12/26 04:03:31;;;;;;;13.95;3.65;;;;;;;-0.28;78.91;99015.22;2091549;84;21317;-70
2020/12/26 04:06:32;;;;;;;13.15;3.77;;;;;;;-0.27;79.05;99016.48;2206181;80;21312;-74
2020/12/26 04:09:33;;;;;;;14.58;4.12;;;;;;;-0.27;79.34;99017.77;2111745;84;21312;-65
2020/12/26 04:12:34;;;;;;;19.37;5.20;;;;;;;-0.26;79.35;99034.08;2206013;80;21151;-68
2020/12/26 04:15:35;;;;;;;20.27;4.95;;;;;;;-0.26;79.90;99015.62;2111859;84;21304;-69
2020/12/26 04:18:37;;;;;;;16.65;4.42;;;;;;;-0.26;79.96;99007.89;2206166;80;21752;-77
2020/12/26 04:21:38;;;;;;;17.52;4.22;;;;;;;-0.25;80.20;99012.14;2111645;84;21149;-72
2020/12/26 04:24:39;;;;;;;18.17;4.95;;;;;;;-0.27;80.28;99020.80;2205883;80;21139;-73
2020/12/26 04:27:40;;;;;;;17.85;4.62;;;;;;;-0.27;80.63;99015.20;2111855;84;21725;-66
2020/12/26 04:30:41;;;;;;;19.32;5.08;;;;;;;-0.28;80.70;99011.35;2206203;81;21568;-68
2020/12/26 04:33:42;;;;;;;19.45;5.80;;;;;;;-0.27;81.13;99019.51;2112059;84;21309;-64
2020/12/26 04:36:43;;;;;;;18.82;5.90;;;;;;;-0.27;80.75;99016.48;2205962;81;21135;-71
2020/12/26 04:39:45;;;;;;;19.82;5.72;;;;;;;-0.27;81.01;99016.94;2111772;84;21761;-64
2020/12/26 04:42:46;;;;;;;18.15;5.62;;;;;;;-0.26;80.95;99011.75;2176712;81;21290;-65
2020/12/26 04:45:48;;;;;;;19.60;5.37;;;;;;;-0.24;81.29;99016.44;2210660;80;21309;-65
2020/12/26 04:48:49;;;;;;;18.17;5.55;;;;;;;-0.26;81.24;99015.62;2184973;80;21297;-68
2020/12/26 04:51:50;;;;;;;16.27;5.30;;;;;;;-0.26;81.14;99007.89;2118742;84;21126;-66
2020/12/26 04:54:51;;;;;;;18.77;4.90;;;;;;;-0.26;81.38;99022.06;2199821;81;21289;-75
2020/12/26 04:57:52;;;;;;;16.37;5.30;;;;;;;-0.26;81.40;99026.34;2199957;81;21717;-71
2020/12/26 05:00:53;;;;;;;18.10;5.12;;;;;;;-0.28;81.58;99021.22;2118451;84;21175;-65
2020/12/26 05:03:55;;;;;;;17.15;4.95;;;;;;;-0.28;81.47;99022.50;2200132;81;21310;-64
2020/12/26 05:06:58;;;;;;;18.50;5.30;;;;;;;-0.28;81.26;99026.82;2199794;81;21277;-66
2020/12/26 05:09:59;;;;;;;16.57;4.83;;;;;;;-0.28;81.65;99029.39;2199975;81;21685;-64
2020/12/26 05:13:00;;;;;;;18.77;5.10;;;;;;;-0.28;81.56;99034.55;2118965;83;21288;-64
2020/12/26 05:16:01;;;;;;;15.95;4.45;;;;;;;-0.28;81.65;99031.53;2200266;81;21139;-69
2020/12/26 05:19:03;;;;;;;17.07;5.20;;;;;;;-0.29;81.79;99038.84;2199747;81;21308;-75
2020/12/26 05:22:04;;;;;;;17.27;5.22;;;;;;;-0.29;82.01;99038.00;2200300;81;21135;-70
2020/12/26 05:25:05;;;;;;;16.93;5.00;;;;;;;-0.31;82.20;99042.33;2118564;84;21173;-72
2020/12/26 05:28:06;;;;;;;17.82;5.42;;;;;;;-0.31;82.13;99046.20;2200036;81;21274;-73
2020/12/26 05:31:07;;;;;;;18.90;5.20;;;;;;;-0.33;82.29;99046.64;2200029;81;21278;-71
2020/12/26 05:34:09;;;;;;;17.00;4.97;;;;;;;-0.36;82.66;99048.39;2199725;81;21313;-74
2020/12/26 05:37:10;;;;;;;17.10;4.80;;;;;;;-0.37;82.58;99043.27;2199779;81;21285;-72
2020/12/26 05:40:11;;;;;;;18.07;5.37;;;;;;;-0.37;82.66;99049.70;2118799;84;21177;-70
2020/12/26 05:43:12;;;;;;;19.32;5.78;;;;;;;-0.37;82.66;99049.26;2199817;81;21289;-66
2020/12/26 05:46:13;;;;;;;17.45;5.45;;;;;;;-0.36;82.60;99053.97;2197171;81;21155;-65
2020/12/26 05:49:14;;;;;;;18.62;5.25;;;;;;;-0.35;82.89;99057.81;2112019;84;21186;-69
2020/12/26 05:52:15;;;;;;;18.23;5.70;;;;;;;-0.34;82.87;99061.27;2205888;81;21167;-74
2020/12/26 05:55:17;;;;;;;18.60;5.10;;;;;;;-0.31;83.11;99065.09;2111809;84;21288;-73
2020/12/26 05:58:18;;;;;;;16.42;5.22;;;;;;;-0.31;82.95;99068.11;2206214;80;21721;-71
2020/12/26 06:01:20;;;;;;;16.80;5.12;;;;;;;-0.30;83.61;99081.39;2111482;84;21162;-75
2020/12/26 06:04:22;;;;;;;17.60;5.35;;;;;;;-0.33;83.92;99076.28;2176095;81;21281;-70
2020/12/26 06:07:23;;;;;;;17.60;4.87;;;;;;;-0.34;84.18;99081.88;2111589;84;21147;-70
2020/12/26 06:10:24;;;;;;;18.95;5.75;;;;;;;-0.35;84.33;99085.33;2205982;81;21626;-71
2020/12/26 06:13:25;;;;;;;19.27;5.15;;;;;;;-0.36;84.21;99081.91;2111630;84;21578;-65
2020/12/26 06:16:27;;;;;;;16.27;5.12;;;;;;;-0.37;84.11;99084.06;2205857;81;21594;-68
2020/12/26 06:19:29;;;;;;;16.82;5.05;;;;;;;-0.36;84.00;99087.06;2111997;84;21304;-74
2020/12/26 06:22:32;;;;;;;17.27;4.67;;;;;;;-0.36;84.05;99090.93;2206125;80;21282;-73
2020/12/26 06:25:33;;;;;;;17.17;4.80;;;;;;;-0.36;84.18;99090.93;2111561;84;21182;-78
2020/12/26 06:28:34;;;;;;;16.70;4.87;;;;;;;-0.37;84.12;99098.23;2205849;80;21142;-71
2020/12/26 06:31:35;;;;;;;17.80;4.75;;;;;;;-0.37;84.46;99105.12;2111591;84;21166;-64
2020/12/26 06:34:37;;;;;;;19.03;5.17;;;;;;;-0.37;84.35;99106.41;2206180;81;21607;-66
2020/12/26 06:37:38;;;;;;;16.62;5.10;;;;;;;-0.39;84.28;99115.88;2111556;84;21404;-70
2020/12/26 06:40:39;;;;;;;16.80;4.70;;;;;;;-0.38;84.51;99105.98;2205823;80;21127;-66
2020/12/26 06:43:40;;;;;;;16.62;4.78;;;;;;;-0.39;84.49;99111.59;2111705;84;21131;-65
2020/12/26 06:46:41;;;;;;;16.25;4.55;;;;;;;-0.42;84.69;99116.75;2211689;80;21294;-64
2020/12/26 06:49:43;;;;;;;18.53;5.27;;;;;;;-0.42;84.70;99112.89;2213389;80;21174;-65
2020/12/26 06:52:44;;;;;;;17.98;4.80;;;;;;;-0.42;84.80;99113.34;2213444;80;21265;-68
2020/12/26 06:55:47;;;;;;;14.13;3.70;;;;;;;;;;2213226;80;21765;-64
2020/12/26 06:58:48;;;;;;;14.43;4.53;;;;;;;-0.47;84.89;99123.70;2213263;80;21697;-64
2020/12/26 07:01:49;;;;;;;15.78;4.60;;;;;;;-0.52;85.45;99122.89;2119056;83;21292;-74
2020/12/26 07:04:52;;;;;;;17.15;4.50;;;;;;;-0.53;85.76;99131.06;2200139;81;21119;-77
2020/12/26 07:07:53;;;;;;;18.25;4.72;;;;;;;-0.54;86.16;99136.24;2118700;83;21158;-65
2020/12/26 07:10:54;;;;;;;17.27;4.60;;;;;;;-0.54;86.00;99137.53;2200075;81;21599;-68
2020/12/26 07:13:55;;;;;;;14.63;4.15;;;;;;;-0.56;86.35;99146.57;2174166;81;21289;-65
2020/12/26 07:16:57;;;;;;;15.85;5.03;;;;;;;-0.55;86.52;99140.55;2174264;81;21262;-64
2020/12/26 07:19:59;;;;;;;19.05;5.55;;;;;;;-0.55;86.47;99135.41;2200279;81;21163;-67
2020/12/26 07:23:00;;;;;;;19.23;5.60;;;;;;;-0.53;86.89;99136.22;2118717;83;21122;-64
2020/12/26 07:26:01;;;;;;;22.35;6.47;;;;;;;-0.51;86.87;99143.94;2199903;81;21270;-64
2020/12/26 07:29:02;;;;;;;27.52;7.60;;;;;;;-0.51;87.01;99148.25;2200188;81;21262;-65
2020/12/26 07:32:04;;;;;;;25.62;7.58;;;;;;;-0.46;86.75;99154.19;2118965;84;21705;-64
2020/12/26 07:35:05;;;;;;;26.62;8.70;;;;;;;-0.44;86.86;99155.04;2200089;81;21302;-64
2020/12/26 07:38:06;;;;;;;25.25;8.25;;;;;;;-0.44;87.07;99154.59;2118553;83;21284;-66
2020/12/26 07:41:08;;;;;;;26.02;7.37;;;;;;;-0.42;87.12;99167.46;2199996;81;21733;-64
2020/12/26 07:44:09;;;;;;;17.07;5.10;;;;;;;-0.44;87.45;99164.91;2200349;81;21147;-64
2020/12/26 07:47:11;;;;;;;21.20;6.28;;;;;;;-0.43;87.67;99167.03;2196860;81;21301;-65
2020/12/26 07:50:13;;;;;;;19.23;6.33;;;;;;;-0.43;87.80;99173.06;2111850;84;21162;-64
2020/12/26 07:53:15;;;;;;;17.82;5.08;;;;;;;-0.40;87.43;99167.88;2206579;81;21174;-64
2020/12/26 07:56:16;;;;;;;22.30;6.62;;;;;;;-0.40;87.42;99175.60;2111639;84;21122;-66
2020/12/26 07:59:17;;;;;;;18.85;4.90;;;;;;;-0.37;87.38;99178.59;2206397;81;21321;-64
2020/12/26 08:02:19;;;;;;;16.52;5.15;;;;;;;-0.34;87.21;99190.15;2112134;84;21154;-64
2020/12/26 08:05:20;;;;;;;19.95;5.50;;;;;;;-0.33;86.87;99196.15;2205952;80;21133;-64
2020/12/26 08:08:23;;;;;;;21.10;5.30;;;;;;;-0.33;86.82;99190.58;2111902;84;21344;-64
2020/12/26 08:11:24;;;;;;;17.73;5.30;;;;;;;-0.34;86.62;99196.59;2206107;80;21754;-65
2020/12/26 08:14:25;;;;;;;14.25;4.35;;;;;;;-0.36;86.84;99194.03;2111558;84;21590;-64
2020/12/26 08:17:27;;;;;;;13.32;3.80;;;;;;;-0.36;86.63;99190.17;2205986;80;21147;-65
2020/12/26 08:20:28;;;;;;;12.82;3.98;;;;;;;-0.35;86.41;99203.45;2111922;84;21744;-72
2020/12/26 08:23:30;;;;;;;17.07;5.00;;;;;;;-0.36;86.57;99206.05;2206400;80;21277;-70
2020/12/26 08:26:31;;;;;;;17.62;4.78;;;;;;;-0.37;86.70;99209.52;2111877;84;21597;-70
2020/12/26 08:29:32;;;;;;;16.62;4.87;;;;;;;-0.37;86.55;99208.23;2206460;80;21303;-70
2020/12/26 08:32:33;;;;;;;19.32;5.53;;;;;;;-0.37;87.03;99209.52;2111902;84;21308;-65
2020/12/26 08:35:34;;;;;;;18.40;5.58;;;;;;;-0.37;87.06;99218.55;2206394;80;21290;-73
2020/12/26 08:38:35;;;;;;;20.95;6.15;;;;;;;-0.39;86.84;99221.14;2112050;84;21317;-67
2020/12/26 08:41:37;;;;;;;21.20;6.85;;;;;;;-0.40;87.05;99234.05;2206051;81;21742;-69
2020/12/26 08:44:38;;;;;;;20.23;6.08;;;;;;;-0.42;87.07;99231.45;2111965;84;21722;-75
2020/12/26 08:47:40;;;;;;;25.05;8.25;;;;;;;-0.40;87.24;99237.47;2212838;80;21717;-74
2020/12/26 08:50:41;;;;;;;36.42;11.68;;;;;;;-0.37;87.23;99227.56;2118684;83;21160;-68
2020/12/26 08:53:42;;;;;;;30.77;10.53;;;;;;;-0.32;86.95;99231.37;2199796;81;21280;-68
2020/12/26 08:56:44;;;;;;;24.50;8.13;;;;;;;-0.28;87.33;99233.91;2118654;83;21162;-78
2020/12/26 08:59:45;;;;;;;25.60;8.30;;;;;;;-0.22;87.08;99239.43;2200137;81;21325;-66
2020/12/26 09:02:46;;;;;;;26.07;9.03;;;;;;;-0.20;87.26;99248.86;2199801;81;21579;-65
2020/12/26 09:05:48;;;;;;;24.25;7.37;;;;;;;-0.15;87.17;99248.80;2118578;83;21736;-72
2020/12/26 09:08:49;;;;;;;22.55;7.75;;;;;;;-0.17;86.70;99254.43;2200133;81;21302;-69
2020/12/26 09:11:51;;;;;;;23.15;7.70;;;;;;;-0.13;86.90;99249.66;2118591;83;21582;-67
2020/12/26 09:14:55;;;;;;;23.98;7.60;;;;;;;-0.04;86.54;99252.58;2200042;81;21265;-64
2020/12/26 09:17:56;;;;;;;22.45;6.40;;;;;;;0.01;86.61;99239.62;2199794;81;21115;-64
2020/12/26 09:20:57;;;;;;;24.02;7.22;;;;;;;-0.01;86.34;99241.77;2200042;81;21293;-65
2020/12/26 09:23:58;;;;;;;22.00;5.85;;;;;;;-0.03;86.23;99249.10;2173710;81;21297;-64
2020/12/26 09:26:59;;;;;;;17.48;5.53;;;;;;;-0.03;86.18;99249.98;2200052;81;21265;-66
2020/12/26 09:30:01;;;;;;;21.33;6.25;;;;;;;-0.03;86.17;99250.39;2118935;83;21288;-64
2020/12/26 09:33:02;;;;;;;20.95;6.53;;;;;;;-0.01;86.95;99245.64;2200033;81;21575;-78
2020/12/26 09:36:03;;;;;;;19.55;6.97;;;;;;;-0.01;85.78;99253.37;2199738;81;21576;-69
2020/12/26 09:39:05;;;;;;;24.92;7.15;;;;;;;-0.01;86.18;99251.25;2118679;83;21193;-65
2020/12/26 09:42:06;;;;;;;27.35;7.58;;;;;;;-0.02;85.88;99261.13;2199797;81;21586;-64
2020/12/26 09:45:07;;;;;;;21.07;6.90;;;;;;;-0.01;86.14;99256.41;2199937;81;21269;-76
2020/12/26 09:48:08;;;;;;;20.52;6.00;;;;;;;0.01;85.54;99252.52;2200261;81;21108;-64
2020/12/26 09:51:10;;;;;;;26.80;8.23;;;;;;;0.01;85.34;99261.55;2118806;84;21146;-70
2020/12/26 09:54:11;;;;;;;24.30;8.05;;;;;;;0.02;85.33;99245.20;2199848;81;21582;-66
2020/12/26 09:57:13;;;;;;;25.65;8.40;;;;;;;0.05;84.80;99252.91;2118805;84;21319;-65
2020/12/26 10:00:14;;;;;;;21.57;7.17;;;;;;;0.08;84.15;99255.44;2200341;81;21357;-64
2020/12/26 10:03:16;;;;;;;24.95;7.75;;;;;;;0.12;83.82;99250.67;2200008;81;21721;-65
2020/12/26 10:06:17;;;;;;;26.93;8.75;;;;;;;0.23;83.52;99253.98;2199721;81;21278;-65
2020/12/26 10:09:18;;;;;;;26.33;9.30;;;;;;;0.32;83.45;99249.98;2199755;81;21135;-65
2020/12/26 10:12:19;;;;;;;29.20;9.88;;;;;;;0.42;83.66;99253.30;2200036;81;21269;-64
2020/12/26 10:15:20;;;;;;;26.45;9.53;;;;;;;0.45;82.81;99254.55;2118650;84;21158;-64
2020/12/26 10:18:21;;;;;;;25.10;8.13;;;;;;;0.48;84.18;99251.92;2199992;81;21737;-65
2020/12/26 10:21:23;;;;;;;23.42;6.50;;;;;;;0.54;83.06;99263.06;2118611;84;21564;-64
2020/12/26 10:24:24;;;;;;;25.75;8.30;;;;;;;0.56;83.45;99262.59;2200281;81;21138;-64
2020/12/26 10:27:25;;;;;;;24.25;8.15;;;;;;;0.57;83.72;99259.14;2118823;84;21173;-66
2020/12/26 10:30:26;;;;;;;27.73;8.48;;;;;;;0.51;83.59;99258.78;2200477;81;21145;-69
2020/12/26 10:33:28;;;;;;;28.35;8.70;;;;;;;0.53;83.66;99257.47;2174289;81;21297;-73
2020/12/26 10:36:30;;;;;;;30.60;9.48;;;;;;;0.54;83.54;99252.28;2200056;81;21595;-75
2020/12/26 10:39:31;;;;;;;28.55;8.95;;;;;;;0.52;83.64;99255.34;2200399;81;21182;-74
2020/12/26 10:42:33;;;;;;;28.27;8.68;;;;;;;0.46;83.87;99249.81;2200181;81;21717;-71
2020/12/26 10:45:34;;;;;;;26.87;8.48;;;;;;;0.45;84.54;99246.81;2199587;81;21262;-66
2020/12/26 10:48:35;;;;;;;24.60;7.42;;;;;;;0.45;84.26;99248.55;2111751;84;21163;-65
2020/12/26 10:51:36;;;;;;;22.42;6.20;;;;;;;0.41;84.32;99251.59;2206285;80;21290;-73
2020/12/26 10:54:38;;;;;;;17.17;4.97;;;;;;;0.32;83.86;99248.69;2175449;81;21124;-66
2020/12/26 10:57:39;;;;;;;20.82;6.15;;;;;;;0.33;84.67;99245.66;2111877;84;21726;-66
2020/12/26 11:00:40;;;;;;;18.90;5.67;;;;;;;0.31;84.15;99259.03;2206189;81;21698;-70
2020/12/26 11:03:41;;;;;;;21.23;6.05;;;;;;;0.32;84.34;99253.85;2112166;84;21293;-69
2020/12/26 11:06:43;;;;;;;20.15;5.37;;;;;;;0.34;84.25;99268.90;2206694;80;21658;-68
2020/12/26 11:09:44;;;;;;;19.55;5.92;;;;;;;0.40;83.83;99267.09;2111975;84;21148;-68
2020/12/26 11:12:45;;;;;;;22.13;6.08;;;;;;;0.40;83.69;99263.23;2206044;80;21297;-69
2020/12/26 11:15:46;;;;;;;20.08;6.00;;;;;;;0.42;83.30;99258.92;2206078;81;21721;-74
2020/12/26 11:18:47;;;;;;;22.42;6.45;;;;;;;0.45;83.91;99258.42;2112148;84;21693;-70
2020/12/26 11:21:48;;;;;;;20.23;5.65;;;;;;;0.53;84.13;99266.50;2206384;81;21543;-68
2020/12/26 11:24:50;;;;;;;18.20;4.67;;;;;;;0.56;83.34;99272.50;2111780;84;21728;-69
2020/12/26 11:27:51;;;;;;;17.55;5.05;;;;;;;0.62;82.07;99265.95;2206279;81;21294;-68
2020/12/26 11:30:53;;;;;;;16.05;4.20;;;;;;;0.70;82.01;99272.29;2112290;84;21602;-64
2020/12/26 11:33:54;;;;;;;21.02;5.60;;;;;;;0.80;80.23;99260.11;2206169;80;21761;-66
2020/12/26 11:36:56;;;;;;;17.67;5.22;;;;;;;0.87;79.75;99263.02;2112069;84;21269;-65
2020/12/26 11:39:57;;;;;;;16.77;4.10;;;;;;;0.97;79.10;99271.05;2175588;81;21289;-64
2020/12/26 11:42:58;;;;;;;20.45;5.55;;;;;;;0.91;77.43;99264.69;2112018;84;21316;-64
2020/12/26 11:45:59;;;;;;;26.68;7.45;;;;;;;0.93;77.85;99265.50;2206840;80;21265;-65
2020/12/26 11:49:03;;;;;;;30.48;7.92;;;;;;;1.01;80.17;99254.63;2213285;80;21293;-70
2020/12/26 11:52:06;;;;;;;19.65;4.97;;;;;;;1.12;79.80;99258.34;2213137;80;21606;-69
2020/12/26 11:55:07;;;;;;;21.82;5.85;;;;;;;1.42;78.28;99268.20;2184749;80;21257;-71
2020/12/26 11:58:08;;;;;;;19.42;5.17;;;;;;;1.28;79.94;99265.84;2213150;80;21605;-65
2020/12/26 12:01:09;;;;;;;20.12;5.25;;;;;;;1.04;78.53;99279.56;2213573;80;21313;-68
2020/12/26 12:04:10;;;;;;;17.20;4.62;;;;;;;0.86;78.50;99256.14;2118522;84;21304;-64
2020/12/26 12:07:12;;;;;;;21.42;5.85;;;;;;;0.76;79.54;99268.36;2200114;81;21583;-69
2020/12/26 12:10:14;;;;;;;20.23;5.15;;;;;;;0.62;80.78;99278.02;2119117;83;21284;-68
2020/12/26 12:13:15;;;;;;;19.85;5.00;;;;;;;0.47;80.90;99265.70;2200200;81;21301;-65
2020/12/26 12:16:16;;;;;;;18.87;5.28;;;;;;;0.42;81.75;99275.25;2199862;81;21265;-66
2020/12/26 12:19:17;;;;;;;22.00;5.87;;;;;;;0.38;82.17;99269.70;2173888;81;21718;-65
2020/12/26 12:22:19;;;;;;;20.17;5.45;;;;;;;0.39;82.66;99283.45;2200030;81;21595;-66
2020/12/26 12:25:21;;;;;;;23.67;7.20;;;;;;;0.34;82.21;99277.05;2200545;81;21104;-65
2020/12/26 12:28:22;;;;;;;22.58;6.47;;;;;;;0.31;82.18;99277.94;2118965;84;21336;-74
2020/12/26 12:31:23;;;;;;;22.50;6.37;;;;;;;0.30;82.37;99290.45;2200223;81;21724;-68
2020/12/26 12:34:24;;;;;;;27.48;7.20;;;;;;;0.24;83.23;99289.66;2118701;83;21189;-68
2020/12/26 12:37:25;;;;;;;27.67;8.20;;;;;;;0.15;83.19;99286.30;2199840;81;21265;-67
2020/12/26 12:40:27;;;;;;;27.90;8.78;;;;;;;0.15;83.88;99285.01;2200048;81;21764;-72
2020/12/26 12:43:28;;;;;;;30.00;9.70;;;;;;;0.16;84.19;99288.47;2173803;81;21273;-65
2020/12/26 12:46:29;;;;;;;31.48;10.05;;;;;;;0.15;83.76;99278.56;2200075;81;21278;-64
2020/12/26 12:49:30;;;;;;;32.23;9.93;;;;;;;0.22;84.28;99287.55;2199895;81;21595;-64
2020/12/26 12:52:31;;;;;;;35.23;11.80;;;;;;;0.29;84.48;99286.15;2199832;81;21285;-67
2020/12/26 12:55:32;;;;;;;29.75;8.35;;;;;;;0.48;84.67;99289.80;2118919;83;21181;-64
2020/12/26 12:58:33;;;;;;;30.57;8.83;;;;;;;0.52;82.94;99292.77;2200094;81;21274;-74
2020/12/26 13:01:34;;;;;;;29.18;8.18;;;;;;;0.42;82.72;99304.92;2200014;81;21781;-68
2020/12/26 13:04:36;;;;;;;28.57;8.70;;;;;;;0.29;82.16;99314.53;2200283;81;21147;-65
2020/12/26 13:07:37;;;;;;;29.57;8.65;;;;;;;0.16;82.47;99311.69;2199812;81;21269;-65
2020/12/26 13:10:38;;;;;;;25.23;7.70;;;;;;;0.11;82.70;99321.19;2118485;83;21304;-67
2020/12/26 13:13:39;;;;;;;21.65;7.17;;;;;;;0.07;82.58;99317.80;2199776;81;21308;-70
2020/12/26 13:16:40;;;;;;;28.65;8.43;;;;;;;0.07;83.03;99313.93;2118449;84;21300;-73
2020/12/26 13:19:41;;;;;;;26.40;7.20;;;;;;;0.07;83.00;99310.06;2200009;81;21706;-71
2020/12/26 13:22:43;;;;;;;32.75;10.00;;;;;;;0.06;83.33;99315.20;2200080;81;21262;-73
2020/12/26 13:25:44;;;;;;;27.00;8.13;;;;;;;0.06;83.50;99308.76;2200075;81;21278;-65
2020/12/26 13:28:45;;;;;;;22.02;5.50;;;;;;;0.08;83.22;99315.62;2173812;81;21302;-70
2020/12/26 13:31:46;;;;;;;26.65;7.40;;;;;;;0.06;82.40;99314.79;2200159;81;21277;-67
2020/12/26 13:34:48;;;;;;;33.98;8.38;;;;;;;0.07;83.03;99310.48;2118448;84;21328;-66
2020/12/26 13:37:49;;;;;;;33.25;8.83;;;;;;;0.06;83.03;99320.37;2199789;81;21288;-69
2020/12/26 13:40:50;;;;;;;26.62;7.25;;;;;;;0.02;83.10;99315.69;2118452;83;21316;-68
2020/12/26 13:43:51;;;;;;;28.38;8.25;;;;;;;-0.02;82.85;99320.45;2199793;81;21319;-69
2020/12/26 13:46:52;;;;;;;25.55;7.53;;;;;;;-0.05;82.90;99323.07;2198975;81;21281;-68
2020/12/26 13:50:03;;;;;;;35.73;12.20;;;;;;;-0.06;82.37;99327.39;2111608;84;21460;-68
2020/12/26 13:53:04;;;;;;;33.08;10.30;;;;;;;-0.05;83.17;99326.49;2206094;81;21300;-69
2020/12/26 13:56:15;;;;;;;27.05;7.78;;;;;;;-0.04;82.47;99343.69;2111682;84;21162;-65
2020/12/26 13:59:28;;;;;;;28.02;8.45;;;;;;;-0.03;82.22;99349.69;2206220;80;21564;-68
2020/12/26 14:02:29;;;;;;;24.60;6.28;;;;;;;-0.01;82.84;99358.28;2111949;84;21652;-65
2020/12/26 14:05:31;;;;;;;31.80;9.55;;;;;;;-0.02;82.05;99365.14;2205861;80;21151;-65
2020/12/26 14:08:32;;;;;;;31.55;8.90;;;;;;;-0.02;82.80;99353.98;2111811;84;21331;-65